Time;durP1;ratioP1;P1;durP2;ratioP2;P2;SDS_P1;SDS_P2;PMS_P1;PMS_P2;Temp;Humidity;BMP_temperature;BMP_pressure;BME280_temperature;BME280_humidity;BME280_pressure;Samples;Min_cycle;Max_cycle;Signal;HPM_P1;HPM_P2
2023/03/11 00:01:23;;;;;;;;;;;1.80;99.90;;;;;;4951969;28;19933;-72
2023/03/11 00:03:49;;;;;;;;;;;1.20;99.90;;;;;;4954239;29;19930;-71
2023/03/11 00:06:15;;;;;;;;;;;1.20;99.90;;;;;;4955011;29;19930;-71
2023/03/11 00:08:40;;;;;;;;;;;1.20;99.90;;;;;;4951448;28;19939;-72
2023/03/11 00:11:06;;;;;;;;;;;1.20;99.90;;;;;;4961349;28;20302;-71
2023/03/11 00:13:32;;;;;;;;;;;1.10;99.90;;;;;;4964138;28;20024;-72
2023/03/11 00:15:59;;;;;;;;;;;1.10;99.90;;;;;;4966320;28;20413;-70
2023/03/11 00:18:26;;;;;;;;;;;1.10;99.90;;;;;;4961468;28;19973;-70
2023/03/11 00:20:53;;;;;;;;;;;1.10;99.90;;;;;;4961688;28;19926;-70
2023/03/11 00:23:18;;;;;;;;;;;1.10;99.90;;;;;;4958979;28;19962;-71
2023/03/11 00:25:45;;;;;;;;;;;1.10;99.90;;;;;;4954651;28;20362;-71
2023/03/11 00:28:11;;;;;;;;;;;1.10;99.90;;;;;;4958269;28;20074;-72
2023/03/11 00:30:37;;;;;;;;;;;2.20;99.90;;;;;;4953529;29;19930;-73
2023/03/11 00:33:03;;;;;;;;;;;1.00;99.90;;;;;;4956835;28;19934;-72
2023/03/11 00:35:33;;;;;;;;;;;1.00;99.90;;;;;;4954496;29;20009;-73
2023/03/11 00:38:05;;;;;;;;;;;1.10;99.90;;;;;;4954787;29;19926;-72
2023/03/11 00:40:32;;;;;;;;;;;1.10;99.90;;;;;;4951617;29;19926;-72
2023/03/11 00:42:58;;;;;;;;;;;1.10;99.90;;;;;;4954936;29;20017;-72
2023/03/11 00:45:24;;;;;;;;;;;1.10;99.90;;;;;;4953450;29;20029;-72
2023/03/11 00:47:50;;;;;;;;;;;3.00;99.90;;;;;;4953329;29;19934;-72
2023/03/11 00:50:17;;;;;;;;;;;1.10;99.90;;;;;;4954761;29;19930;-72
2023/03/11 00:52:44;;;;;;;;;;;1.20;99.90;;;;;;4953332;28;19927;-73
2023/03/11 00:55:09;;;;;;;;;;;1.20;99.90;;;;;;4954623;29;19930;-72
2023/03/11 00:57:35;;;;;;;;;;;3.10;99.90;;;;;;4954336;28;19973;-72
2023/03/11 01:00:00;;;;;;;;;;;1.20;99.90;;;;;;4955520;29;19930;-72
2023/03/11 01:02:26;;;;;;;;;;;3.30;99.90;;;;;;4956245;29;19927;-72
2023/03/11 01:04:53;;;;;;;;;;;1.20;99.90;;;;;;4956000;29;19971;-72
2023/03/11 01:07:18;;;;;;;;;;;1.20;99.90;;;;;;4955169;28;20399;-72
2023/03/11 01:09:44;;;;;;;;;;;1.20;99.90;;;;;;4955000;29;20017;-73
2023/03/11 01:12:09;;;;;;;;;;;1.60;99.90;;;;;;4955040;29;19930;-72
2023/03/11 01:14:35;;;;;;;;;;;2.20;99.90;;;;;;4952895;28;19978;-72
2023/03/11 01:17:00;;;;;;;;;;;1.20;99.90;;;;;;4955311;29;19934;-72
2023/03/11 01:19:26;;;;;;;;;;;1.20;99.90;;;;;;4955601;29;19934;-72
2023/03/11 01:21:51;;;;;;;;;;;1.20;99.90;;;;;;4955263;29;19926;-72
2023/03/11 01:24:17;;;;;;;;;;;1.20;99.90;;;;;;4954515;29;20382;-72
2023/03/11 01:26:43;;;;;;;;;;;1.20;99.90;;;;;;4953797;29;19978;-72
2023/03/11 01:29:09;;;;;;;;;;;1.20;99.90;;;;;;4954922;29;19927;-72
2023/03/11 01:31:34;;;;;;;;;;;1.20;99.90;;;;;;4954510;29;20378;-72
2023/03/11 01:34:00;;;;;;;;;;;1.80;99.90;;;;;;4954606;29;19933;-72
2023/03/11 01:36:25;;;;;;;;;;;1.20;99.90;;;;;;4954960;29;19941;-73
2023/03/11 01:38:51;;;;;;;;;;;1.10;99.90;;;;;;4953157;29;19933;-74
2023/03/11 01:41:16;;;;;;;;;;;1.10;99.90;;;;;;4950110;29;19926;-73
2023/03/11 01:43:42;;;;;;;;;;;1.90;99.90;;;;;;4955200;29;19933;-73
2023/03/11 01:46:15;;;;;;;;;;;1.00;99.90;;;;;;4953367;29;19935;-73
2023/03/11 01:48:44;;;;;;;;;;;0.90;99.90;;;;;;4952931;29;19986;-73
2023/03/11 01:51:10;;;;;;;;;;;0.80;99.90;;;;;;4955364;28;20009;-73
2023/03/11 01:53:35;;;;;;;;;;;0.80;99.90;;;;;;4954531;29;20061;-73
2023/03/11 01:56:02;;;;;;;;;;;0.70;99.90;;;;;;4953190;29;19926;-73
2023/03/11 01:58:30;;;;;;;;;;;0.70;99.90;;;;;;4954970;28;20294;-73
2023/03/11 02:00:58;;;;;;;;;;;0.70;99.90;;;;;;4955461;29;19931;-73
2023/03/11 02:03:26;;;;;;;;;;;2.30;99.90;;;;;;4954391;28;19926;-73
2023/03/11 02:05:52;;;;;;;;;;;0.70;99.90;;;;;;4953630;29;19926;-73
2023/03/11 02:08:18;;;;;;;;;;;0.80;99.90;;;;;;4953530;29;19930;-73
2023/03/11 02:10:44;;;;;;;;;;;0.80;99.90;;;;;;4953138;29;19966;-73
2023/03/11 02:13:10;;;;;;;;;;;0.80;99.90;;;;;;4954021;29;19926;-73
2023/03/11 02:15:36;;;;;;;;;;;0.80;99.90;;;;;;4953545;29;19964;-73
2023/03/11 02:18:03;;;;;;;;;;;0.70;99.90;;;;;;4954477;28;19926;-73
2023/03/11 02:20:29;;;;;;;;;;;0.70;99.90;;;;;;4954041;28;20331;-73
2023/03/11 02:22:56;;;;;;;;;;;0.60;99.90;;;;;;4955127;29;19936;-73
2023/03/11 02:25:43;;;;;;;;;;;0.60;99.90;;;;;;4955311;28;19961;-73
2023/03/11 02:28:10;;;;;;;;;;;0.50;99.90;;;;;;4951126;29;19927;-72
2023/03/11 02:30:38;;;;;;;;;;;0.50;99.90;;;;;;4953326;28;20020;-73
2023/03/11 02:33:04;;;;;;;;;;;0.40;99.90;;;;;;4954149;29;19927;-73
2023/03/11 02:35:30;;;;;;;;;;;0.40;99.90;;;;;;4954316;29;20299;-72
2023/03/11 02:37:55;;;;;;;;;;;0.30;99.90;;;;;;4953744;29;19934;-72
2023/03/11 02:40:25;;;;;;;;;;;0.30;99.90;;;;;;4954732;29;20313;-73
2023/03/11 02:42:59;;;;;;;;;;;0.30;99.90;;;;;;4953118;29;20382;-72
2023/03/11 02:45:25;;;;;;;;;;;0.30;99.90;;;;;;4952079;29;19959;-73
2023/03/11 02:47:52;;;;;;;;;;;0.20;99.90;;;;;;4953413;29;19927;-73
2023/03/11 02:50:17;;;;;;;;;;;0.30;99.90;;;;;;4952992;29;19927;-73
2023/03/11 02:52:43;;;;;;;;;;;0.20;99.90;;;;;;4953729;29;19927;-73
2023/03/11 02:55:10;;;;;;;;;;;0.10;99.90;;;;;;4954199;28;19934;-72
2023/03/11 02:57:36;;;;;;;;;;;0.10;99.90;;;;;;4952768;29;19935;-72
2023/03/11 03:00:09;;;;;;;;;;;0.10;99.90;;;;;;4952147;29;19982;-73
2023/03/11 03:02:35;;;;;;;;;;;0.10;99.90;;;;;;4950416;29;19935;-72
2023/03/11 03:05:00;;;;;;;;;;;0.10;99.90;;;;;;4953209;29;19938;-72
2023/03/11 03:07:26;;;;;;;;;;;0.10;99.90;;;;;;4951975;29;20425;-72
2023/03/11 03:09:51;;;;;;;;;;;0.10;99.90;;;;;;4953336;29;19926;-72
2023/03/11 03:12:20;;;;;;;;;;;0.10;99.90;;;;;;4952376;29;19922;-72
2023/03/11 03:14:45;;;;;;;;;;;0.10;99.90;;;;;;4953063;29;20298;-72
2023/03/11 03:17:11;;;;;;;;;;;1.20;99.90;;;;;;4977329;28;19934;-72
2023/03/11 03:19:36;;;;;;;;;;;1.40;99.90;;;;;;4951596;29;20432;-72
2023/03/11 03:22:02;;;;;;;;;;;0.10;99.90;;;;;;4953031;29;19941;-73
2023/03/11 03:24:27;;;;;;;;;;;0.80;99.90;;;;;;4953589;28;19929;-72
2023/03/11 03:26:53;;;;;;;;;;;0.10;99.90;;;;;;4953362;29;19942;-72
2023/03/11 03:29:18;;;;;;;;;;;0.10;99.90;;;;;;4952798;29;19927;-72
2023/03/11 03:31:44;;;;;;;;;;;0.10;99.90;;;;;;4952720;29;20455;-72
2023/03/11 03:34:09;;;;;;;;;;;0.00;99.90;;;;;;4952709;29;20267;-72
2023/03/11 03:36:35;;;;;;;;;;;0.00;99.90;;;;;;4953467;28;19933;-72
2023/03/11 03:39:01;;;;;;;;;;;-0.10;99.90;;;;;;4958050;29;19927;-72
2023/03/11 03:41:26;;;;;;;;;;;-0.10;99.90;;;;;;4951311;29;19926;-72
2023/03/11 03:43:53;;;;;;;;;;;-0.10;99.90;;;;;;4956496;28;19934;-72
2023/03/11 03:46:19;;;;;;;;;;;-0.20;99.90;;;;;;4955996;29;19930;-72
2023/03/11 03:48:44;;;;;;;;;;;-0.30;99.90;;;;;;4954430;29;19937;-73
2023/03/11 03:51:13;;;;;;;;;;;-0.30;99.90;;;;;;4955057;29;20327;-73
2023/03/11 03:53:39;;;;;;;;;;;-0.30;99.90;;;;;;4956133;29;19957;-72
2023/03/11 03:56:06;;;;;;;;;;;-0.40;99.90;;;;;;4955080;29;19938;-72
2023/03/11 03:58:34;;;;;;;;;;;-0.40;99.90;;;;;;4954880;29;19922;-72
2023/03/11 04:01:00;;;;;;;;;;;-0.40;99.90;;;;;;4956143;29;19933;-72
2023/03/11 04:03:26;;;;;;;;;;;0.20;99.90;;;;;;4954917;28;19923;-72
2023/03/11 04:05:52;;;;;;;;;;;1.60;99.90;;;;;;4952121;29;19926;-72
2023/03/11 04:08:18;;;;;;;;;;;-0.50;99.90;;;;;;4955868;28;19934;-72
2023/03/11 04:10:44;;;;;;;;;;;-0.50;99.90;;;;;;4954084;29;20294;-72
2023/03/11 04:13:09;;;;;;;;;;;-0.50;99.90;;;;;;4955744;29;20302;-72
2023/03/11 04:15:36;;;;;;;;;;;-0.60;99.90;;;;;;4955182;29;19927;-72
2023/03/11 04:18:02;;;;;;;;;;;-0.60;99.90;;;;;;4955889;28;19931;-72
2023/03/11 04:20:27;;;;;;;;;;;-0.70;99.90;;;;;;4954376;29;20298;-72
2023/03/11 04:22:53;;;;;;;;;;;-0.80;99.90;;;;;;4954586;29;19958;-72
2023/03/11 04:25:18;;;;;;;;;;;-0.80;99.90;;;;;;4955673;29;19926;-72
2023/03/11 04:27:45;;;;;;;;;;;-0.80;99.90;;;;;;4955432;29;20278;-72
2023/03/11 04:30:11;;;;;;;;;;;-0.90;99.90;;;;;;4953859;29;20021;-71
2023/03/11 04:32:36;;;;;;;;;;;-0.90;99.90;;;;;;4955417;29;19926;-72
2023/03/11 04:35:02;;;;;;;;;;;-0.80;99.90;;;;;;4954375;29;19934;-73
2023/03/11 04:37:29;;;;;;;;;;;-0.90;99.90;;;;;;4953574;29;20427;-72
2023/03/11 04:39:54;;;;;;;;;;;-1.00;99.90;;;;;;4894417;28;1772878;-72
2023/03/11 04:42:20;;;;;;;;;;;-0.10;99.90;;;;;;4959515;28;19926;-72
2023/03/11 04:44:45;;;;;;;;;;;-1.00;99.90;;;;;;4953809;29;19927;-72
2023/03/11 04:47:14;;;;;;;;;;;-1.00;99.90;;;;;;4954814;28;19926;-72
2023/03/11 04:49:39;;;;;;;;;;;-1.10;99.90;;;;;;4954549;29;19942;-72
2023/03/11 04:52:05;;;;;;;;;;;-1.10;99.90;;;;;;4954274;29;19926;-72
2023/03/11 04:54:30;;;;;;;;;;;-1.00;99.90;;;;;;4954855;29;19970;-72
2023/03/11 04:56:56;;;;;;;;;;;-1.10;99.90;;;;;;4955491;29;19927;-72
2023/03/11 04:59:21;;;;;;;;;;;-1.10;99.90;;;;;;4954130;29;19926;-72
2023/03/11 05:01:47;;;;;;;;;;;-1.10;99.90;;;;;;4957807;28;19926;-72
2023/03/11 05:04:12;;;;;;;;;;;-1.10;99.90;;;;;;4955175;29;19930;-71
2023/03/11 05:06:38;;;;;;;;;;;-1.10;99.90;;;;;;4953914;29;19994;-72
2023/03/11 05:09:04;;;;;;;;;;;-1.10;99.90;;;;;;4956036;29;20307;-72
2023/03/11 05:11:29;;;;;;;;;;;-1.10;99.90;;;;;;4954220;29;19926;-73
2023/03/11 05:13:55;;;;;;;;;;;-1.10;99.90;;;;;;4957256;28;20209;-72
2023/03/11 05:16:20;;;;;;;;;;;-1.20;99.90;;;;;;4960645;28;19927;-72
2023/03/11 05:18:46;;;;;;;;;;;-1.20;99.90;;;;;;4955663;29;19927;-72
2023/03/11 05:21:12;;;;;;;;;;;-1.20;99.90;;;;;;4954735;29;19926;-72
2023/03/11 05:23:37;;;;;;;;;;;-1.20;99.90;;;;;;4954460;29;19926;-72
2023/03/11 05:26:03;;;;;;;;;;;-1.20;99.90;;;;;;4954949;29;19985;-72
2023/03/11 05:28:28;;;;;;;;;;;-1.20;99.90;;;;;;4955733;29;19926;-72
2023/03/11 05:30:54;;;;;;;;;;;-1.20;99.90;;;;;;4954418;29;19937;-72
2023/03/11 05:33:19;;;;;;;;;;;-1.30;99.90;;;;;;4953331;29;19933;-72
2023/03/11 05:35:45;;;;;;;;;;;-1.30;99.90;;;;;;4954239;29;20021;-72
2023/03/11 05:38:10;;;;;;;;;;;-1.30;99.90;;;;;;4955694;29;19927;-72
2023/03/11 05:40:36;;;;;;;;;;;-1.40;99.90;;;;;;4954448;29;19949;-72
2023/03/11 05:43:01;;;;;;;;;;;-1.40;99.90;;;;;;4955574;29;20394;-72
2023/03/11 05:45:27;;;;;;;;;;;-1.40;99.90;;;;;;4953905;29;19927;-72
2023/03/11 05:47:53;;;;;;;;;;;-1.40;99.90;;;;;;4953288;29;19978;-72
2023/03/11 05:50:18;;;;;;;;;;;-1.50;99.90;;;;;;4955631;29;20017;-72
2023/03/11 05:52:44;;;;;;;;;;;-1.50;99.90;;;;;;4954320;29;20025;-72
2023/03/11 05:55:11;;;;;;;;;;;-1.50;99.90;;;;;;4953747;29;19934;-72
2023/03/11 05:57:37;;;;;;;;;;;-1.60;99.90;;;;;;4955214;28;19934;-72
2023/03/11 06:00:05;;;;;;;;;;;-1.60;99.90;;;;;;4953859;28;19926;-72
2023/03/11 06:02:31;;;;;;;;;;;-1.60;99.90;;;;;;4954551;29;20614;-73
2023/03/11 06:05:00;;;;;;;;;;;0.90;99.90;;;;;;4955233;29;19945;-72
2023/03/11 06:07:25;;;;;;;;;;;1.20;99.90;;;;;;4953389;29;20294;-72
2023/03/11 06:09:51;;;;;;;;;;;-1.70;99.90;;;;;;4952065;29;19926;-72
2023/03/11 06:12:17;;;;;;;;;;;-0.10;99.90;;;;;;4954454;29;19926;-72
2023/03/11 06:14:42;;;;;;;;;;;-1.60;99.90;;;;;;4954752;28;19933;-72
2023/03/11 06:17:08;;;;;;;;;;;-0.50;99.90;;;;;;4954150;29;20072;-72
2023/03/11 06:19:33;;;;;;;;;;;-1.60;99.90;;;;;;4953895;29;20401;-72
2023/03/11 06:21:59;;;;;;;;;;;-1.60;99.90;;;;;;4954598;29;19934;-72
2023/03/11 06:24:24;;;;;;;;;;;-1.50;99.90;;;;;;4953334;29;20275;-72
2023/03/11 06:26:53;;;;;;;;;;;-1.50;99.90;;;;;;4953067;28;20381;-72
2023/03/11 06:29:20;;;;;;;;;;;1.50;99.90;;;;;;4953520;29;20021;-72
2023/03/11 06:31:46;;;;;;;;;;;-1.50;99.90;;;;;;4954531;29;19930;-72
2023/03/11 06:34:11;;;;;;;;;;;-1.40;99.90;;;;;;4953104;29;19926;-73
2023/03/11 06:36:37;;;;;;;;;;;-1.40;99.90;;;;;;4952328;29;20326;-72
2023/03/11 06:39:03;;;;;;;;;;;-1.40;99.90;;;;;;4954309;29;20005;-72
2023/03/11 06:41:31;;;;;;;;;;;-1.40;99.90;;;;;;4953919;29;19974;-72
2023/03/11 06:43:58;;;;;;;;;;;-1.40;99.90;;;;;;4949571;29;19933;-72
2023/03/11 06:46:24;;;;;;;;;;;-1.40;99.90;;;;;;4954311;29;19927;-72
2023/03/11 06:48:55;;;;;;;;;;;-1.30;99.90;;;;;;4953208;29;19957;-72
2023/03/11 06:51:21;;;;;;;;;;;-1.30;99.90;;;;;;4952377;29;19949;-72
2023/03/11 06:53:53;;;;;;;;;;;-1.30;99.90;;;;;;4952580;29;20386;-72
2023/03/11 06:56:19;;;;;;;;;;;-1.30;99.90;;;;;;4952525;29;20025;-72
2023/03/11 06:58:45;;;;;;;;;;;-1.30;99.90;;;;;;4952348;29;19981;-72
2023/03/11 07:01:15;;;;;;;;;;;0.50;99.90;;;;;;4952779;29;19926;-72
2023/03/11 07:03:40;;;;;;;;;;;-1.20;99.90;;;;;;4953586;29;19926;-72
2023/03/11 07:06:10;;;;;;;;;;;-1.10;99.90;;;;;;4952015;29;19926;-72
2023/03/11 07:08:35;;;;;;;;;;;-1.00;99.90;;;;;;4952445;29;19926;-72
2023/03/11 07:11:05;;;;;;;;;;;-1.00;99.90;;;;;;4953385;29;19977;-72
2023/03/11 07:13:30;;;;;;;;;;;-0.90;99.90;;;;;;4953040;28;19927;-72
2023/03/11 07:16:19;;;;;;;;;;;0.60;99.90;;;;;;4953035;29;19927;-72
2023/03/11 07:18:46;;;;;;;;;;;-0.80;99.90;;;;;;4942077;29;19939;-72
2023/03/11 07:21:15;;;;;;;;;;;-0.70;99.90;;;;;;4953860;28;19962;-72
2023/03/11 07:23:41;;;;;;;;;;;2.00;99.90;;;;;;4952313;29;19926;-72
2023/03/11 07:26:08;;;;;;;;;;;2.40;99.90;;;;;;4951848;29;19934;-72
2023/03/11 07:28:34;;;;;;;;;;;2.40;99.90;;;;;;4953878;29;20025;-73
2023/03/11 07:31:04;;;;;;;;;;;-0.50;99.90;;;;;;4954182;29;19966;-72
2023/03/11 07:33:30;;;;;;;;;;;-0.40;99.90;;;;;;4951770;29;19927;-72
2023/03/11 07:35:55;;;;;;;;;;;-0.30;99.90;;;;;;4953798;29;19927;-72
2023/03/11 07:38:21;;;;;;;;;;;-0.20;99.90;;;;;;4952688;29;19933;-72
2023/03/11 07:40:46;;;;;;;;;;;0.00;99.90;;;;;;4947431;29;20274;-73
2023/03/11 07:43:12;;;;;;;;;;;0.10;99.90;;;;;;4952764;29;19926;-73
2023/03/11 07:45:38;;;;;;;;;;;0.20;99.90;;;;;;4952710;29;20461;-73
2023/03/11 07:48:03;;;;;;;;;;;0.30;99.90;;;;;;4953282;29;19965;-72
2023/03/11 07:50:29;;;;;;;;;;;0.40;99.90;;;;;;4952589;29;19986;-71
2023/03/11 07:52:54;;;;;;;;;;;0.50;99.90;;;;;;4953177;29;19937;-71
2023/03/11 07:55:20;;;;;;;;;;;0.60;99.90;;;;;;4951856;29;20378;-73
2023/03/11 07:57:46;;;;;;;;;;;0.80;99.90;;;;;;4953569;29;19981;-74
2023/03/11 08:00:12;;;;;;;;;;;1.80;99.90;;;;;;4953797;29;19934;-76
2023/03/11 08:02:41;;;;;;;;;;;3.50;99.90;;;;;;4951217;29;20374;-76
2023/03/11 08:05:06;;;;;;;;;;;5.60;99.90;;;;;;4953119;29;20017;-76
2023/03/11 08:07:32;;;;;;;;;;;7.10;99.90;;;;;;4951669;29;20326;-76
2023/03/11 08:09:57;;;;;;;;;;;9.00;99.90;;;;;;4952819;29;19926;-76
2023/03/11 08:12:23;;;;;;;;;;;9.70;99.90;;;;;;4952823;28;19923;-76
2023/03/11 08:14:49;;;;;;;;;;;10.80;99.90;;;;;;4953154;29;19933;-76
2023/03/11 08:17:14;;;;;;;;;;;11.80;97.40;;;;;;4954774;28;19930;-76
2023/03/11 08:19:40;;;;;;;;;;;12.40;97.40;;;;;;4951789;29;20314;-76
2023/03/11 08:22:05;;;;;;;;;;;12.90;94.20;;;;;;4952683;28;19926;-76
2023/03/11 08:24:31;;;;;;;;;;;13.40;92.20;;;;;;4955052;29;19922;-79
2023/03/11 08:26:56;;;;;;;;;;;14.00;90.80;;;;;;4955421;29;19934;-79
2023/03/11 08:29:22;;;;;;;;;;;14.00;88.80;;;;;;4954220;29;19933;-75
2023/03/11 08:31:48;;;;;;;;;;;14.40;91.30;;;;;;4955269;29;20264;-75
2023/03/11 08:34:14;;;;;;;;;;;14.90;89.20;;;;;;4955647;29;19927;-76
2023/03/11 08:36:40;;;;;;;;;;;15.50;87.50;;;;;;4954455;29;20394;-74
2023/03/11 08:39:05;;;;;;;;;;;15.70;85.10;;;;;;4956444;29;19977;-76
2023/03/11 08:41:31;;;;;;;;;;;16.10;83.10;;;;;;4956933;29;19934;-73
2023/03/11 08:43:57;;;;;;;;;;;15.80;83.20;;;;;;4954873;29;19927;-78
2023/03/11 08:46:22;;;;;;;;;;;16.10;84.60;;;;;;4955900;28;20279;-79
2023/03/11 08:48:48;;;;;;;;;;;16.60;82.30;;;;;;4950980;28;19945;-77
2023/03/11 08:51:14;;;;;;;;;;;16.80;83.40;;;;;;4955449;28;19923;-75
2023/03/11 08:53:40;;;;;;;;;;;17.00;82.20;;;;;;4955407;28;20038;-75
2023/03/11 08:56:06;;;;;;;;;;;17.50;80.80;;;;;;4954532;29;20420;-78
2023/03/11 08:58:31;;;;;;;;;;;17.50;81.70;;;;;;4952993;29;19923;-81
2023/03/11 09:00:57;;;;;;;;;;;17.80;78.70;;;;;;4954835;29;19926;-84
2023/03/11 09:03:23;;;;;;;;;;;17.70;76.40;;;;;;4953863;29;19923;-79
2023/03/11 09:05:48;;;;;;;;;;;18.10;79.30;;;;;;4954529;29;19927;-78
2023/03/11 09:08:14;;;;;;;;;;;18.30;79.20;;;;;;4951544;29;19927;-78
2023/03/11 09:10:39;;;;;;;;;;;18.50;75.40;;;;;;4953941;29;19926;-77
2023/03/11 09:13:05;;;;;;;;;;;18.20;75.70;;;;;;4949707;29;20405;-76
2023/03/11 09:15:31;;;;;;;;;;;18.60;77.50;;;;;;4949976;29;19949;-75
2023/03/11 09:17:56;;;;;;;;;;;18.90;77.80;;;;;;4955017;29;19933;-75
2023/03/11 09:20:22;;;;;;;;;;;18.80;76.60;;;;;;4958054;28;19941;-80
2023/03/11 09:22:47;;;;;;;;;;;18.60;76.30;;;;;;4956212;28;19933;-76
2023/03/11 09:25:13;;;;;;;;;;;18.60;77.70;;;;;;4955165;29;19927;-78
2023/03/11 09:27:40;;;;;;;;;;;18.30;73.60;;;;;;4954897;29;19930;-78
2023/03/11 09:30:06;;;;;;;;;;;18.80;74.30;;;;;;4955534;29;19931;-77
2023/03/11 09:32:31;;;;;;;;;;;19.00;74.20;;;;;;4954397;29;19926;-81
2023/03/11 09:34:57;;;;;;;;;;;19.30;75.40;;;;;;4954831;28;19930;-75
2023/03/11 09:37:22;;;;;;;;;;;19.10;75.60;;;;;;4953530;29;19934;-75
2023/03/11 09:39:48;;;;;;;;;;;19.10;76.50;;;;;;4953150;28;19926;-77
2023/03/11 09:42:19;;;;;;;;;;;19.10;72.20;;;;;;4951051;29;19927;-77
2023/03/11 09:44:48;;;;;;;;;;;18.90;76.30;;;;;;4949593;29;20306;-79
2023/03/11 09:47:31;;;;;;;;;;;18.70;73.10;;;;;;4949411;29;19926;-77
2023/03/11 09:50:17;;;;;;;;;;;19.00;76.70;;;;;;4951812;29;19930;-76
2023/03/11 09:52:51;;;;;;;;;;;19.60;73.40;;;;;;4951986;29;19977;-77
2023/03/11 09:55:40;;;;;;;;;;;19.40;76.00;;;;;;4954196;29;19973;-77
2023/03/11 09:58:18;;;;;;;;;;;19.20;76.10;;;;;;4949444;29;20009;-76
2023/03/11 10:00:44;;;;;;;;;;;19.40;74.20;;;;;;4954702;29;20298;-76
2023/03/11 10:03:20;;;;;;;;;;;19.80;75.80;;;;;;4954879;28;19936;-76
2023/03/11 10:05:47;;;;;;;;;;;19.30;73.60;;;;;;4961553;23;20523;-76
2023/03/11 10:08:23;;;;;;;;;;;19.30;75.00;;;;;;4935436;29;19927;-77
2023/03/11 10:10:53;;;;;;;;;;;18.10;72.60;;;;;;4945278;29;19973;-75
2023/03/11 10:13:32;;;;;;;;;;;19.40;73.00;;;;;;4930688;28;19927;-78
2023/03/11 10:16:18;;;;;;;;;;;18.40;73.90;;;;;;4947704;28;20001;-78
2023/03/11 10:18:43;;;;;;;;;;;18.60;76.20;;;;;;4933221;29;19934;-78
2023/03/11 10:21:18;;;;;;;;;;;19.10;73.80;;;;;;4946272;29;19927;-78
2023/03/11 10:24:09;;;;;;;;;;;19.10;75.10;;;;;;4932670;29;19927;-79
2023/03/11 10:26:40;;;;;;;;;;;19.20;73.40;;;;;;4934289;29;19927;-77
2023/03/11 10:29:05;;;;;;;;;;;19.40;74.20;;;;;;4945847;29;19937;-77
2023/03/11 10:31:34;;;;;;;;;;;19.90;70.40;;;;;;4934874;29;19926;-78
2023/03/11 10:34:00;;;;;;;;;;;19.30;68.50;;;;;;4949240;29;19926;-78
2023/03/11 10:36:38;;;;;;;;;;;19.30;67.80;;;;;;4935381;29;20436;-77
2023/03/11 10:39:09;;;;;;;;;;;19.30;67.50;;;;;;4952535;29;19933;-78
2023/03/11 10:41:41;;;;;;;;;;;18.40;67.80;;;;;;4968432;28;19934;-78
2023/03/11 10:44:14;;;;;;;;;;;17.90;69.90;;;;;;4947245;28;20390;-78
2023/03/11 10:46:40;;;;;;;;;;;17.20;70.20;;;;;;4934832;29;19926;-77
2023/03/11 10:49:12;;;;;;;;;;;17.40;68.80;;;;;;4944448;29;20028;-77
2023/03/11 10:51:38;;;;;;;;;;;17.80;70.90;;;;;;4935235;29;19927;-78
2023/03/11 10:54:04;;;;;;;;;;;17.50;70.60;;;;;;4934130;29;19989;-77
2023/03/11 10:56:34;;;;;;;;;;;17.80;70.60;;;;;;4943445;29;19970;-77
2023/03/11 10:59:00;;;;;;;;;;;17.90;70.20;;;;;;4934667;29;19934;-78
2023/03/11 11:01:26;;;;;;;;;;;18.00;70.90;;;;;;4942888;29;20630;-77
2023/03/11 11:03:54;;;;;;;;;;;17.00;69.80;;;;;;4932405;29;19927;-78
2023/03/11 11:06:28;;;;;;;;;;;15.40;72.00;;;;;;4944981;29;19934;-79
2023/03/11 11:09:15;;;;;;;;;;;15.50;72.60;;;;;;4935206;29;19930;-73
2023/03/11 11:11:59;;;;;;;;;;;15.40;75.40;;;;;;4944663;29;20402;-76
2023/03/11 11:14:24;;;;;;;;;;;15.90;75.80;;;;;;4943588;29;19935;-76
2023/03/11 11:16:50;;;;;;;;;;;16.00;75.90;;;;;;4935309;29;19926;-80
2023/03/11 11:19:17;;;;;;;;;;;15.20;74.60;;;;;;4941750;29;19930;-78
2023/03/11 11:21:47;;;;;;;;;;;14.90;73.20;;;;;;4945569;29;19966;-77
2023/03/11 11:24:20;;;;;;;;;;;15.00;76.00;;;;;;4965146;28;19927;-77
2023/03/11 11:27:02;;;;;;;;;;;14.90;75.90;;;;;;4945256;28;19930;-77
2023/03/11 11:29:28;;;;;;;;;;;14.80;75.60;;;;;;4944241;29;19934;-80
2023/03/11 11:32:09;;;;;;;;;;;14.70;77.00;;;;;;4933786;29;19926;-76
2023/03/11 11:34:34;;;;;;;;;;;14.10;75.10;;;;;;4932852;29;20314;-78
2023/03/11 11:37:03;;;;;;;;;;;13.40;79.50;;;;;;4936045;29;19927;-76
2023/03/11 11:39:34;;;;;;;;;;;13.10;79.80;;;;;;4933711;29;20020;-81
2023/03/11 11:42:03;;;;;;;;;;;12.40;80.10;;;;;;4934965;29;19926;-82
2023/03/11 11:44:31;;;;;;;;;;;12.10;85.30;;;;;;4951507;29;19934;-81
2023/03/11 11:47:01;;;;;;;;;;;11.90;84.50;;;;;;4933694;29;19926;-81
2023/03/11 11:49:27;;;;;;;;;;;11.60;83.60;;;;;;4932251;29;19935;-77
2023/03/11 11:52:03;;;;;;;;;;;10.90;83.90;;;;;;4934741;29;19933;-78
2023/03/11 11:54:37;;;;;;;;;;;10.70;84.70;;;;;;4961030;28;19934;-80
2023/03/11 11:57:14;;;;;;;;;;;11.00;88.30;;;;;;4933969;29;20085;-77
2023/03/11 11:59:40;;;;;;;;;;;11.20;87.10;;;;;;4936373;29;19930;-79
2023/03/11 12:02:05;;;;;;;;;;;11.70;86.10;;;;;;4938322;29;19933;-81
2023/03/11 12:04:31;;;;;;;;;;;11.90;85.30;;;;;;4939532;29;19926;-78
2023/03/11 12:07:06;;;;;;;;;;;11.80;84.60;;;;;;4970315;23;19957;-75
2023/03/11 12:09:42;;;;;;;;;;;11.40;82.50;;;;;;4962945;28;19934;-76
2023/03/11 12:12:16;;;;;;;;;;;11.50;84.20;;;;;;4963881;28;20033;-78
2023/03/11 12:14:44;;;;;;;;;;;11.60;83.20;;;;;;4966697;28;19927;-73
2023/03/11 12:17:11;;;;;;;;;;;10.70;85.40;;;;;;4967496;28;19926;-74
2023/03/11 12:19:55;;;;;;;;;;;10.30;85.40;;;;;;4969779;28;20402;-74
2023/03/11 12:22:21;;;;;;;;;;;9.90;87.60;;;;;;4964777;28;19926;-75
2023/03/11 12:24:55;;;;;;;;;;;11.20;86.40;;;;;;4965843;28;19926;-77
2023/03/11 12:27:20;;;;;;;;;;;11.00;87.20;;;;;;4968784;28;20068;-76
2023/03/11 12:29:50;;;;;;;;;;;12.20;85.90;;;;;;4968823;28;20017;-77
2023/03/11 12:32:22;;;;;;;;;;;11.90;82.70;;;;;;4966148;28;19989;-79
2023/03/11 12:34:48;;;;;;;;;;;12.40;87.00;;;;;;4965679;28;19930;-76
2023/03/11 12:37:19;;;;;;;;;;;12.40;86.20;;;;;;4966176;28;19927;-77
2023/03/11 12:39:45;;;;;;;;;;;11.80;87.70;;;;;;4968323;28;19933;-74
2023/03/11 12:42:14;;;;;;;;;;;10.90;85.20;;;;;;4968781;28;19926;-76
2023/03/11 12:44:40;;;;;;;;;;;10.40;87.00;;;;;;4969810;28;19926;-78
2023/03/11 12:47:12;;;;;;;;;;;11.20;87.30;;;;;;4964706;28;19931;-76
2023/03/11 12:49:37;;;;;;;;;;;11.50;84.90;;;;;;4960855;28;19979;-77
2023/03/11 12:52:12;;;;;;;;;;;12.20;83.90;;;;;;4966051;28;19965;-77
2023/03/11 12:54:41;;;;;;;;;;;13.20;83.70;;;;;;4968420;28;19937;-80
2023/03/11 12:57:13;;;;;;;;;;;14.00;82.90;;;;;;4961936;28;19945;-78
2023/03/11 12:59:44;;;;;;;;;;;13.90;80.90;;;;;;4965038;28;19930;-78
2023/03/11 13:02:25;;;;;;;;;;;13.90;79.80;;;;;;4961855;28;19922;-78
2023/03/11 13:05:09;;;;;;;;;;;13.50;80.00;;;;;;4962986;28;19933;-77
2023/03/11 13:07:45;;;;;;;;;;;12.40;81.50;;;;;;4967149;28;19972;-78
2023/03/11 13:10:10;;;;;;;;;;;12.50;85.10;;;;;;4963077;28;19969;-76
2023/03/11 13:12:40;;;;;;;;;;;13.10;82.50;;;;;;4967445;28;19976;-78
2023/03/11 13:15:21;;;;;;;;;;;13.30;83.50;;;;;;4964590;28;19935;-78
2023/03/11 13:17:59;;;;;;;;;;;13.40;83.70;;;;;;4968721;28;19973;-75
2023/03/11 13:20:40;;;;;;;;;;;13.10;82.50;;;;;;4962358;28;20381;-74
2023/03/11 13:23:11;;;;;;;;;;;12.90;82.00;;;;;;4971051;28;20400;-74
2023/03/11 13:25:41;;;;;;;;;;;12.20;83.80;;;;;;4962653;28;19930;-75
2023/03/11 13:28:10;;;;;;;;;;;11.20;85.50;;;;;;4962691;28;20069;-74
2023/03/11 13:30:39;;;;;;;;;;;10.40;87.40;;;;;;4962236;28;19933;-74
2023/03/11 13:33:24;;;;;;;;;;;10.40;88.80;;;;;;4966072;28;19926;-74
2023/03/11 13:35:52;;;;;;;;;;;9.40;91.20;;;;;;4969921;28;19931;-77
2023/03/11 13:38:40;;;;;;;;;;;9.60;91.50;;;;;;4977723;28;19930;-78
2023/03/11 13:41:13;;;;;;;;;;;10.00;93.00;;;;;;4965456;28;20390;-80
2023/03/11 13:43:42;;;;;;;;;;;10.10;92.30;;;;;;4968537;28;19937;-84
2023/03/11 13:46:27;;;;;;;;;;;10.20;91.10;;;;;;4973202;28;20381;-75
2023/03/11 13:48:57;;;;;;;;;;;10.10;91.80;;;;;;4969422;28;19926;-77
2023/03/11 13:51:35;;;;;;;;;;;10.30;92.10;;;;;;4964566;28;20012;-74
2023/03/11 13:54:21;;;;;;;;;;;10.30;91.50;;;;;;4965298;28;20397;-75
2023/03/11 13:56:52;;;;;;;;;;;10.10;89.20;;;;;;4970336;28;20009;-73
2023/03/11 13:59:28;;;;;;;;;;;10.00;90.70;;;;;;4962333;28;19931;-75
2023/03/11 14:01:55;;;;;;;;;;;9.80;91.40;;;;;;4973140;28;19922;-74
2023/03/11 14:04:25;;;;;;;;;;;9.70;91.20;;;;;;4964580;28;19954;-73
2023/03/11 14:06:51;;;;;;;;;;;9.50;91.50;;;;;;4965920;28;19977;-75
2023/03/11 14:09:21;;;;;;;;;;;10.00;95.70;;;;;;4971995;28;19938;-73
2023/03/11 14:11:47;;;;;;;;;;;8.90;96.60;;;;;;4965974;28;19922;-77
2023/03/11 14:14:29;;;;;;;;;;;8.70;97.70;;;;;;4961842;28;19926;-73
2023/03/11 14:16:55;;;;;;;;;;;8.40;98.70;;;;;;4972831;28;19922;-71
2023/03/11 14:19:20;;;;;;;;;;;9.70;99.90;;;;;;4967173;28;20338;-75
2023/03/11 14:21:47;;;;;;;;;;;8.50;99.90;;;;;;4968718;28;19926;-77
2023/03/11 14:24:23;;;;;;;;;;;9.20;99.90;;;;;;4967215;28;19956;-70
2023/03/11 14:26:52;;;;;;;;;;;8.60;99.90;;;;;;4966647;28;20516;-73